sensor_id;sensor_type;location;lat;lon;timestamp;P1;durP1;ratioP1;P2;durP2;ratioP2
26774;SDS011;14362;51.902;7.626;2023-06-19T00:00:28;6.57;;;5.97;;
26774;SDS011;14362;51.902;7.626;2023-06-19T00:04:32;7.53;;;6.85;;
26774;SDS011;14362;51.902;7.626;2023-06-19T00:08:33;7.32;;;6.70;;
26774;SDS011;14362;51.902;7.626;2023-06-19T00:12:36;7.60;;;6.90;;
26774;SDS011;14362;51.902;7.626;2023-06-19T00:16:37;6.85;;;6.35;;
26774;SDS011;14362;51.902;7.626;2023-06-19T00:20:41;6.88;;;6.32;;
26774;SDS011;14362;51.902;7.626;2023-06-19T00:24:46;9.10;;;7.00;;
26774;SDS011;14362;51.902;7.626;2023-06-19T00:28:47;7.38;;;6.55;;
26774;SDS011;14362;51.902;7.626;2023-06-19T00:32:49;7.72;;;7.03;;
26774;SDS011;14362;51.902;7.626;2023-06-19T00:36:54;6.95;;;6.35;;
26774;SDS011;14362;51.902;7.626;2023-06-19T00:40:57;7.53;;;6.63;;
26774;SDS011;14362;51.902;7.626;2023-06-19T00:44:59;7.68;;;6.97;;
26774;SDS011;14362;51.902;7.626;2023-06-19T00:49:00;7.03;;;6.38;;
26774;SDS011;14362;51.902;7.626;2023-06-19T00:53:03;7.60;;;7.00;;
26774;SDS011;14362;51.902;7.626;2023-06-19T00:57:08;7.25;;;6.55;;
26774;SDS011;14362;51.902;7.626;2023-06-19T01:01:10;7.45;;;6.72;;
26774;SDS011;14362;51.902;7.626;2023-06-19T01:05:12;6.35;;;5.75;;
26774;SDS011;14362;51.902;7.626;2023-06-19T01:09:15;7.10;;;6.47;;
26774;SDS011;14362;51.902;7.626;2023-06-19T01:13:19;7.25;;;6.55;;
26774;SDS011;14362;51.902;7.626;2023-06-19T01:17:25;7.20;;;6.53;;
26774;SDS011;14362;51.902;7.626;2023-06-19T01:21:28;7.70;;;6.93;;
26774;SDS011;14362;51.902;7.626;2023-06-19T01:25:31;7.53;;;6.80;;
26774;SDS011;14362;51.902;7.626;2023-06-19T01:29:32;7.32;;;6.72;;
26774;SDS011;14362;51.902;7.626;2023-06-19T01:33:34;7.18;;;6.50;;
26774;SDS011;14362;51.902;7.626;2023-06-19T01:37:38;7.43;;;6.80;;
26774;SDS011;14362;51.902;7.626;2023-06-19T01:41:42;7.45;;;6.75;;
26774;SDS011;14362;51.902;7.626;2023-06-19T01:45:48;6.85;;;6.25;;
26774;SDS011;14362;51.902;7.626;2023-06-19T01:49:49;6.80;;;6.20;;
26774;SDS011;14362;51.902;7.626;2023-06-19T01:53:51;6.68;;;6.07;;
26774;SDS011;14362;51.902;7.626;2023-06-19T01:57:54;7.53;;;6.25;;
26774;SDS011;14362;51.902;7.626;2023-06-19T02:01:55;7.50;;;6.80;;
26774;SDS011;14362;51.902;7.626;2023-06-19T02:05:57;6.63;;;6.03;;
26774;SDS011;14362;51.902;7.626;2023-06-19T02:09:58;6.85;;;6.15;;
26774;SDS011;14362;51.902;7.626;2023-06-19T02:14:01;6.90;;;6.30;;
26774;SDS011;14362;51.902;7.626;2023-06-19T02:18:03;6.70;;;6.20;;
26774;SDS011;14362;51.902;7.626;2023-06-19T02:22:05;6.82;;;6.22;;
26774;SDS011;14362;51.902;7.626;2023-06-19T02:26:07;6.93;;;5.93;;
26774;SDS011;14362;51.902;7.626;2023-06-19T02:30:10;6.50;;;5.80;;
26774;SDS011;14362;51.902;7.626;2023-06-19T02:34:12;6.47;;;5.97;;
26774;SDS011;14362;51.902;7.626;2023-06-19T02:38:13;6.78;;;6.18;;
26774;SDS011;14362;51.902;7.626;2023-06-19T02:42:15;6.80;;;6.10;;
26774;SDS011;14362;51.902;7.626;2023-06-19T02:46:18;6.80;;;6.10;;
26774;SDS011;14362;51.902;7.626;2023-06-19T02:50:20;6.65;;;6.05;;
26774;SDS011;14362;51.902;7.626;2023-06-19T02:54:21;6.47;;;5.97;;
26774;SDS011;14362;51.902;7.626;2023-06-19T02:58:23;6.20;;;5.70;;
26774;SDS011;14362;51.902;7.626;2023-06-19T03:02:26;6.82;;;6.18;;
26774;SDS011;14362;51.902;7.626;2023-06-19T03:06:28;7.88;;;6.00;;
26774;SDS011;14362;51.902;7.626;2023-06-19T03:10:29;6.78;;;5.97;;
26774;SDS011;14362;51.902;7.626;2023-06-19T03:14:31;6.70;;;6.18;;
26774;SDS011;14362;51.902;7.626;2023-06-19T03:18:34;6.45;;;5.82;;
26774;SDS011;14362;51.902;7.626;2023-06-19T03:22:35;6.70;;;6.10;;
26774;SDS011;14362;51.902;7.626;2023-06-19T03:26:36;7.60;;;6.65;;
26774;SDS011;14362;51.902;7.626;2023-06-19T03:30:38;6.60;;;6.00;;
26774;SDS011;14362;51.902;7.626;2023-06-19T03:34:41;6.65;;;6.05;;
26774;SDS011;14362;51.902;7.626;2023-06-19T03:38:43;6.67;;;5.97;;
26774;SDS011;14362;51.902;7.626;2023-06-19T03:42:44;6.80;;;6.20;;
26774;SDS011;14362;51.902;7.626;2023-06-19T03:46:46;6.88;;;6.22;;
26774;SDS011;14362;51.902;7.626;2023-06-19T03:50:49;6.05;;;5.55;;
26774;SDS011;14362;51.902;7.626;2023-06-19T03:54:50;6.22;;;5.72;;
26774;SDS011;14362;51.902;7.626;2023-06-19T03:58:52;6.20;;;5.60;;
26774;SDS011;14362;51.902;7.626;2023-06-19T04:02:53;6.72;;;6.13;;
26774;SDS011;14362;51.902;7.626;2023-06-19T04:06:56;6.53;;;5.97;;
26774;SDS011;14362;51.902;7.626;2023-06-19T04:10:59;6.32;;;5.78;;
26774;SDS011;14362;51.902;7.626;2023-06-19T04:15:00;6.25;;;5.57;;
26774;SDS011;14362;51.902;7.626;2023-06-19T04:19:02;7.38;;;5.93;;
26774;SDS011;14362;51.902;7.626;2023-06-19T04:23:04;8.18;;;6.13;;
26774;SDS011;14362;51.902;7.626;2023-06-19T04:27:06;7.20;;;5.93;;
26774;SDS011;14362;51.902;7.626;2023-06-19T04:31:08;6.47;;;5.88;;
26774;SDS011;14362;51.902;7.626;2023-06-19T04:35:10;6.60;;;6.00;;
26774;SDS011;14362;51.902;7.626;2023-06-19T04:39:12;5.90;;;5.35;;
26774;SDS011;14362;51.902;7.626;2023-06-19T04:43:15;5.57;;;5.07;;
26774;SDS011;14362;51.902;7.626;2023-06-19T04:47:16;5.43;;;4.93;;
26774;SDS011;14362;51.902;7.626;2023-06-19T04:51:19;5.75;;;5.10;;
26774;SDS011;14362;51.902;7.626;2023-06-19T04:55:22;5.82;;;5.20;;
26774;SDS011;14362;51.902;7.626;2023-06-19T04:59:25;6.13;;;5.63;;
26774;SDS011;14362;51.902;7.626;2023-06-19T05:03:27;7.38;;;4.63;;
26774;SDS011;14362;51.902;7.626;2023-06-19T05:07:28;5.63;;;5.10;;
26774;SDS011;14362;51.902;7.626;2023-06-19T05:11:31;5.65;;;4.75;;
26774;SDS011;14362;51.902;7.626;2023-06-19T05:15:32;5.70;;;5.20;;
26774;SDS011;14362;51.902;7.626;2023-06-19T05:19:34;6.22;;;4.90;;
26774;SDS011;14362;51.902;7.626;2023-06-19T05:23:35;5.40;;;4.90;;
26774;SDS011;14362;51.902;7.626;2023-06-19T05:27:39;4.82;;;4.43;;
26774;SDS011;14362;51.902;7.626;2023-06-19T05:31:41;5.72;;;5.13;;
26774;SDS011;14362;51.902;7.626;2023-06-19T05:35:42;5.53;;;4.60;;
26774;SDS011;14362;51.902;7.626;2023-06-19T05:39:51;8.40;;;4.70;;
26774;SDS011;14362;51.902;7.626;2023-06-19T05:43:53;8.70;;;4.85;;
26774;SDS011;14362;51.902;7.626;2023-06-19T05:47:55;4.68;;;4.28;;
26774;SDS011;14362;51.902;7.626;2023-06-19T05:51:57;5.90;;;4.47;;
26774;SDS011;14362;51.902;7.626;2023-06-19T05:55:59;6.68;;;4.30;;
26774;SDS011;14362;51.902;7.626;2023-06-19T06:00:02;5.75;;;4.43;;
26774;SDS011;14362;51.902;7.626;2023-06-19T06:04:05;6.75;;;4.20;;
26774;SDS011;14362;51.902;7.626;2023-06-19T06:08:07;6.68;;;3.78;;
26774;SDS011;14362;51.902;7.626;2023-06-19T06:12:08;3.92;;;3.63;;
26774;SDS011;14362;51.902;7.626;2023-06-19T06:16:11;3.95;;;3.35;;
26774;SDS011;14362;51.902;7.626;2023-06-19T06:20:13;3.80;;;3.40;;
26774;SDS011;14362;51.902;7.626;2023-06-19T06:24:14;4.18;;;3.00;;
26774;SDS011;14362;51.902;7.626;2023-06-19T06:28:16;5.93;;;3.78;;
26774;SDS011;14362;51.902;7.626;2023-06-19T06:32:19;3.80;;;2.88;;
26774;SDS011;14362;51.902;7.626;2023-06-19T06:36:20;2.45;;;2.25;;
26774;SDS011;14362;51.902;7.626;2023-06-19T06:40:21;2.97;;;2.30;;
26774;SDS011;14362;51.902;7.626;2023-06-19T06:44:23;3.28;;;2.25;;
26774;SDS011;14362;51.902;7.626;2023-06-19T06:48:26;4.05;;;2.63;;
26774;SDS011;14362;51.902;7.626;2023-06-19T06:52:27;2.75;;;2.00;;
26774;SDS011;14362;51.902;7.626;2023-06-19T06:56:30;3.92;;;2.25;;
26774;SDS011;14362;51.902;7.626;2023-06-19T07:00:31;2.78;;;2.40;;
26774;SDS011;14362;51.902;7.626;2023-06-19T07:04:34;5.20;;;2.90;;
26774;SDS011;14362;51.902;7.626;2023-06-19T07:08:36;6.05;;;2.40;;
26774;SDS011;14362;51.902;7.626;2023-06-19T07:12:44;3.55;;;2.88;;
26774;SDS011;14362;51.902;7.626;2023-06-19T07:16:46;3.90;;;3.33;;
26774;SDS011;14362;51.902;7.626;2023-06-19T07:20:49;3.63;;;3.03;;
26774;SDS011;14362;51.902;7.626;2023-06-19T07:24:50;3.55;;;2.80;;
26774;SDS011;14362;51.902;7.626;2023-06-19T07:28:52;3.72;;;2.40;;
26774;SDS011;14362;51.902;7.626;2023-06-19T07:32:53;3.00;;;2.22;;
26774;SDS011;14362;51.902;7.626;2023-06-19T07:36:56;2.92;;;2.50;;
26774;SDS011;14362;51.902;7.626;2023-06-19T07:40:58;3.35;;;2.40;;
26774;SDS011;14362;51.902;7.626;2023-06-19T07:44:59;2.90;;;2.20;;
26774;SDS011;14362;51.902;7.626;2023-06-19T07:49:00;1.80;;;1.70;;
26774;SDS011;14362;51.902;7.626;2023-06-19T07:53:03;2.25;;;1.80;;
26774;SDS011;14362;51.902;7.626;2023-06-19T07:57:05;2.38;;;2.17;;
26774;SDS011;14362;51.902;7.626;2023-06-19T08:01:08;2.53;;;2.13;;
26774;SDS011;14362;51.902;7.626;2023-06-19T08:05:10;2.33;;;2.13;;
26774;SDS011;14362;51.902;7.626;2023-06-19T08:09:13;2.30;;;1.90;;
26774;SDS011;14362;51.902;7.626;2023-06-19T08:13:14;2.92;;;1.80;;
26774;SDS011;14362;51.902;7.626;2023-06-19T08:17:16;3.00;;;1.90;;
26774;SDS011;14362;51.902;7.626;2023-06-19T08:21:17;2.60;;;2.40;;
26774;SDS011;14362;51.902;7.626;2023-06-19T08:25:22;2.85;;;1.92;;
26774;SDS011;14362;51.902;7.626;2023-06-19T08:29:23;3.33;;;2.20;;
26774;SDS011;14362;51.902;7.626;2023-06-19T08:33:25;3.35;;;2.30;;
26774;SDS011;14362;51.902;7.626;2023-06-19T08:37:27;2.58;;;2.38;;
26774;SDS011;14362;51.902;7.626;2023-06-19T08:41:30;3.42;;;2.22;;
26774;SDS011;14362;51.902;7.626;2023-06-19T08:45:31;3.35;;;2.30;;
26774;SDS011;14362;51.902;7.626;2023-06-19T08:49:33;2.88;;;1.98;;
26774;SDS011;14362;51.902;7.626;2023-06-19T08:53:36;2.85;;;2.10;;
26774;SDS011;14362;51.902;7.626;2023-06-19T08:57:47;4.13;;;2.30;;
26774;SDS011;14362;51.902;7.626;2023-06-19T09:01:50;3.33;;;2.28;;
26774;SDS011;14362;51.902;7.626;2023-06-19T09:05:53;2.58;;;2.30;;
26774;SDS011;14362;51.902;7.626;2023-06-19T09:09:54;3.45;;;2.88;;
26774;SDS011;14362;51.902;7.626;2023-06-19T09:13:59;3.40;;;3.08;;
26774;SDS011;14362;51.902;7.626;2023-06-19T09:18:01;4.28;;;3.00;;
26774;SDS011;14362;51.902;7.626;2023-06-19T09:22:04;5.38;;;3.65;;
26774;SDS011;14362;51.902;7.626;2023-06-19T09:26:07;6.00;;;3.08;;
26774;SDS011;14362;51.902;7.626;2023-06-19T09:30:14;4.35;;;2.85;;
26774;SDS011;14362;51.902;7.626;2023-06-19T09:34:16;3.30;;;3.00;;
26774;SDS011;14362;51.902;7.626;2023-06-19T09:38:18;3.85;;;2.70;;
26774;SDS011;14362;51.902;7.626;2023-06-19T09:42:24;4.43;;;2.53;;
26774;SDS011;14362;51.902;7.626;2023-06-19T09:46:30;3.03;;;2.60;;
26774;SDS011;14362;51.902;7.626;2023-06-19T09:50:37;4.72;;;2.30;;
26774;SDS011;14362;51.902;7.626;2023-06-19T09:54:40;2.63;;;2.42;;
26774;SDS011;14362;51.902;7.626;2023-06-19T09:58:43;3.15;;;2.47;;
26774;SDS011;14362;51.902;7.626;2023-06-19T10:02:48;3.35;;;2.38;;
26774;SDS011;14362;51.902;7.626;2023-06-19T10:06:50;3.92;;;2.58;;
26774;SDS011;14362;51.902;7.626;2023-06-19T10:10:51;3.28;;;2.90;;
26774;SDS011;14362;51.902;7.626;2023-06-19T10:14:57;4.45;;;2.88;;
26774;SDS011;14362;51.902;7.626;2023-06-19T10:18:59;3.40;;;3.10;;
26774;SDS011;14362;51.902;7.626;2023-06-19T10:23:02;3.38;;;2.90;;
26774;SDS011;14362;51.902;7.626;2023-06-19T10:27:05;3.60;;;3.20;;
26774;SDS011;14362;51.902;7.626;2023-06-19T10:31:07;3.42;;;2.88;;
26774;SDS011;14362;51.902;7.626;2023-06-19T10:35:12;3.67;;;2.85;;
26774;SDS011;14362;51.902;7.626;2023-06-19T10:39:14;3.80;;;3.03;;
26774;SDS011;14362;51.902;7.626;2023-06-19T10:43:19;3.65;;;2.97;;
26774;SDS011;14362;51.902;7.626;2023-06-19T10:47:21;3.65;;;3.40;;
26774;SDS011;14362;51.902;7.626;2023-06-19T10:51:25;3.42;;;3.03;;
26774;SDS011;14362;51.902;7.626;2023-06-19T10:59:29;3.42;;;3.13;;
26774;SDS011;14362;51.902;7.626;2023-06-19T11:03:31;3.88;;;3.47;;
26774;SDS011;14362;51.902;7.626;2023-06-19T11:11:38;3.25;;;2.95;;
26774;SDS011;14362;51.902;7.626;2023-06-19T11:15:40;3.38;;;3.08;;
26774;SDS011;14362;51.902;7.626;2023-06-19T11:19:41;3.40;;;3.05;;
26774;SDS011;14362;51.902;7.626;2023-06-19T11:23:47;3.72;;;3.42;;
26774;SDS011;14362;51.902;7.626;2023-06-19T11:27:50;4.05;;;3.65;;
26774;SDS011;14362;51.902;7.626;2023-06-19T11:36:05;4.20;;;2.95;;
26774;SDS011;14362;51.902;7.626;2023-06-19T11:40:09;3.83;;;3.53;;
26774;SDS011;14362;51.902;7.626;2023-06-19T11:44:12;7.68;;;3.03;;
26774;SDS011;14362;51.902;7.626;2023-06-19T11:48:13;3.13;;;2.72;;
26774;SDS011;14362;51.902;7.626;2023-06-19T11:52:15;3.13;;;2.60;;
26774;SDS011;14362;51.902;7.626;2023-06-19T11:56:18;2.70;;;2.33;;
26774;SDS011;14362;51.902;7.626;2023-06-19T12:00:19;2.65;;;2.42;;
26774;SDS011;14362;51.902;7.626;2023-06-19T12:04:21;5.95;;;2.53;;
26774;SDS011;14362;51.902;7.626;2023-06-19T12:08:22;3.95;;;2.85;;
26774;SDS011;14362;51.902;7.626;2023-06-19T12:12:26;5.78;;;2.35;;
26774;SDS011;14362;51.902;7.626;2023-06-19T12:16:27;2.95;;;2.25;;
26774;SDS011;14362;51.902;7.626;2023-06-19T12:20:28;2.78;;;2.47;;
26774;SDS011;14362;51.902;7.626;2023-06-19T12:24:30;3.50;;;2.45;;
26774;SDS011;14362;51.902;7.626;2023-06-19T12:28:34;6.85;;;3.35;;
26774;SDS011;14362;51.902;7.626;2023-06-19T12:36:37;3.28;;;2.97;;
26774;SDS011;14362;51.902;7.626;2023-06-19T12:40:39;4.28;;;2.60;;
26774;SDS011;14362;51.902;7.626;2023-06-19T12:44:42;4.03;;;2.80;;
26774;SDS011;14362;51.902;7.626;2023-06-19T12:48:44;3.47;;;3.17;;
26774;SDS011;14362;51.902;7.626;2023-06-19T12:52:50;4.10;;;2.90;;
26774;SDS011;14362;51.902;7.626;2023-06-19T12:56:52;5.95;;;2.90;;
26774;SDS011;14362;51.902;7.626;2023-06-19T13:00:54;3.28;;;2.97;;
26774;SDS011;14362;51.902;7.626;2023-06-19T13:04:56;6.05;;;3.10;;
26774;SDS011;14362;51.902;7.626;2023-06-19T13:08:58;4.30;;;3.40;;
26774;SDS011;14362;51.902;7.626;2023-06-19T13:12:59;5.05;;;3.45;;
26774;SDS011;14362;51.902;7.626;2023-06-19T13:17:02;3.85;;;2.90;;
26774;SDS011;14362;51.902;7.626;2023-06-19T13:21:04;6.63;;;3.40;;
26774;SDS011;14362;51.902;7.626;2023-06-19T13:25:06;4.13;;;3.08;;
26774;SDS011;14362;51.902;7.626;2023-06-19T13:29:08;4.00;;;2.92;;
26774;SDS011;14362;51.902;7.626;2023-06-19T13:33:11;3.50;;;3.20;;
26774;SDS011;14362;51.902;7.626;2023-06-19T13:37:12;3.88;;;3.50;;
26774;SDS011;14362;51.902;7.626;2023-06-19T13:41:14;4.68;;;3.22;;
26774;SDS011;14362;51.902;7.626;2023-06-19T13:45:15;5.20;;;3.40;;
26774;SDS011;14362;51.902;7.626;2023-06-19T13:49:18;4.00;;;3.50;;
26774;SDS011;14362;51.902;7.626;2023-06-19T13:53:20;4.15;;;3.45;;
26774;SDS011;14362;51.902;7.626;2023-06-19T13:57:22;4.60;;;4.05;;
26774;SDS011;14362;51.902;7.626;2023-06-19T14:01:24;6.78;;;3.42;;
26774;SDS011;14362;51.902;7.626;2023-06-19T14:05:27;5.28;;;3.72;;
26774;SDS011;14362;51.902;7.626;2023-06-19T14:09:28;5.10;;;4.43;;
26774;SDS011;14362;51.902;7.626;2023-06-19T14:13:30;5.28;;;4.18;;
26774;SDS011;14362;51.902;7.626;2023-06-19T14:17:32;4.40;;;4.00;;
26774;SDS011;14362;51.902;7.626;2023-06-19T14:21:34;6.40;;;4.10;;
26774;SDS011;14362;51.902;7.626;2023-06-19T14:25:36;5.53;;;4.15;;
26774;SDS011;14362;51.902;7.626;2023-06-19T14:29:37;4.60;;;4.00;;
26774;SDS011;14362;51.902;7.626;2023-06-19T14:33:39;4.32;;;3.97;;
26774;SDS011;14362;51.902;7.626;2023-06-19T14:37:41;8.93;;;4.15;;
26774;SDS011;14362;51.902;7.626;2023-06-19T14:41:43;5.60;;;4.28;;
26774;SDS011;14362;51.902;7.626;2023-06-19T14:45:44;4.63;;;3.83;;
26774;SDS011;14362;51.902;7.626;2023-06-19T14:49:46;8.82;;;4.28;;
26774;SDS011;14362;51.902;7.626;2023-06-19T14:53:49;4.75;;;4.15;;
26774;SDS011;14362;51.902;7.626;2023-06-19T14:57:50;4.88;;;4.00;;
26774;SDS011;14362;51.902;7.626;2023-06-19T15:01:51;4.50;;;4.07;;
26774;SDS011;14362;51.902;7.626;2023-06-19T15:05:53;5.57;;;4.65;;
26774;SDS011;14362;51.902;7.626;2023-06-19T15:09:56;5.28;;;4.45;;
26774;SDS011;14362;51.902;7.626;2023-06-19T15:13:57;4.28;;;3.97;;
26774;SDS011;14362;51.902;7.626;2023-06-19T15:17:59;4.60;;;4.20;;
26774;SDS011;14362;51.902;7.626;2023-06-19T15:22:00;5.57;;;3.95;;
26774;SDS011;14362;51.902;7.626;2023-06-19T15:26:03;5.82;;;4.53;;
26774;SDS011;14362;51.902;7.626;2023-06-19T15:30:05;5.87;;;4.30;;
26774;SDS011;14362;51.902;7.626;2023-06-19T15:34:07;4.90;;;4.38;;
26774;SDS011;14362;51.902;7.626;2023-06-19T15:38:09;5.65;;;4.50;;
26774;SDS011;14362;51.902;7.626;2023-06-19T15:42:12;6.30;;;4.68;;
26774;SDS011;14362;51.902;7.626;2023-06-19T15:46:13;4.45;;;3.95;;
26774;SDS011;14362;51.902;7.626;2023-06-19T15:50:15;5.85;;;4.20;;
26774;SDS011;14362;51.902;7.626;2023-06-19T15:54:17;5.78;;;4.20;;
26774;SDS011;14362;51.902;7.626;2023-06-19T15:58:20;5.93;;;4.22;;
26774;SDS011;14362;51.902;7.626;2023-06-19T16:02:21;4.47;;;4.07;;
26774;SDS011;14362;51.902;7.626;2023-06-19T16:06:23;5.80;;;4.72;;
26774;SDS011;14362;51.902;7.626;2023-06-19T16:10:24;4.82;;;4.32;;
26774;SDS011;14362;51.902;7.626;2023-06-19T16:14:28;5.28;;;4.60;;
26774;SDS011;14362;51.902;7.626;2023-06-19T16:18:29;5.28;;;4.60;;
26774;SDS011;14362;51.902;7.626;2023-06-19T16:22:31;6.45;;;4.45;;
26774;SDS011;14362;51.902;7.626;2023-06-19T16:26:33;5.57;;;4.35;;
26774;SDS011;14362;51.902;7.626;2023-06-19T16:30:36;5.07;;;4.30;;
26774;SDS011;14362;51.902;7.626;2023-06-19T16:34:38;5.90;;;4.30;;
26774;SDS011;14362;51.902;7.626;2023-06-19T16:38:39;4.13;;;3.75;;
26774;SDS011;14362;51.902;7.626;2023-06-19T16:42:40;5.25;;;4.38;;
26774;SDS011;14362;51.902;7.626;2023-06-19T16:46:43;4.82;;;4.35;;
26774;SDS011;14362;51.902;7.626;2023-06-19T16:50:45;4.47;;;4.07;;
26774;SDS011;14362;51.902;7.626;2023-06-19T16:54:46;4.53;;;4.13;;
26774;SDS011;14362;51.902;7.626;2023-06-19T16:58:47;4.50;;;4.10;;
26774;SDS011;14362;51.902;7.626;2023-06-19T17:02:51;4.63;;;4.15;;
26774;SDS011;14362;51.902;7.626;2023-06-19T17:06:55;5.35;;;4.13;;
26774;SDS011;14362;51.902;7.626;2023-06-19T17:10:56;5.28;;;4.78;;
26774;SDS011;14362;51.902;7.626;2023-06-19T17:14:58;4.93;;;4.18;;
26774;SDS011;14362;51.902;7.626;2023-06-19T17:19:01;4.97;;;4.50;;
26774;SDS011;14362;51.902;7.626;2023-06-19T17:23:03;4.78;;;4.30;;
26774;SDS011;14362;51.902;7.626;2023-06-19T17:27:05;6.00;;;4.63;;
26774;SDS011;14362;51.902;7.626;2023-06-19T17:31:06;9.55;;;4.45;;
26774;SDS011;14362;51.902;7.626;2023-06-19T17:35:09;6.00;;;4.68;;
26774;SDS011;14362;51.902;7.626;2023-06-19T17:39:12;6.25;;;4.22;;
26774;SDS011;14362;51.902;7.626;2023-06-19T17:43:13;10.32;;;4.00;;
26774;SDS011;14362;51.902;7.626;2023-06-19T17:47:14;4.30;;;3.95;;
26774;SDS011;14362;51.902;7.626;2023-06-19T17:51:18;4.78;;;4.22;;
26774;SDS011;14362;51.902;7.626;2023-06-19T17:55:19;5.67;;;4.30;;
26774;SDS011;14362;51.902;7.626;2023-06-19T17:59:21;6.38;;;4.30;;
26774;SDS011;14362;51.902;7.626;2023-06-19T18:03:22;6.03;;;4.30;;
26774;SDS011;14362;51.902;7.626;2023-06-19T18:07:25;4.45;;;4.10;;
26774;SDS011;14362;51.902;7.626;2023-06-19T18:11:26;8.13;;;4.77;;
26774;SDS011;14362;51.902;7.626;2023-06-19T18:15:28;9.13;;;4.50;;
26774;SDS011;14362;51.902;7.626;2023-06-19T18:19:29;11.27;;;4.75;;
26774;SDS011;14362;51.902;7.626;2023-06-19T18:23:32;7.28;;;4.60;;
26774;SDS011;14362;51.902;7.626;2023-06-19T18:27:34;4.90;;;4.15;;
26774;SDS011;14362;51.902;7.626;2023-06-19T18:31:35;4.45;;;4.05;;
26774;SDS011;14362;51.902;7.626;2023-06-19T18:35:36;6.88;;;4.47;;
26774;SDS011;14362;51.902;7.626;2023-06-19T18:39:39;5.35;;;4.85;;
26774;SDS011;14362;51.902;7.626;2023-06-19T18:43:41;4.90;;;4.43;;
26774;SDS011;14362;51.902;7.626;2023-06-19T18:47:42;4.47;;;3.92;;
26774;SDS011;14362;51.902;7.626;2023-06-19T18:51:43;5.30;;;4.75;;
26774;SDS011;14362;51.902;7.626;2023-06-19T18:55:46;6.18;;;4.65;;
26774;SDS011;14362;51.902;7.626;2023-06-19T18:59:48;7.13;;;4.30;;
26774;SDS011;14362;51.902;7.626;2023-06-19T19:03:49;7.60;;;4.78;;
26774;SDS011;14362;51.902;7.626;2023-06-19T19:07:51;7.03;;;4.63;;
26774;SDS011;14362;51.902;7.626;2023-06-19T19:11:53;7.57;;;4.70;;
26774;SDS011;14362;51.902;7.626;2023-06-19T19:15:55;6.55;;;4.32;;
26774;SDS011;14362;51.902;7.626;2023-06-19T19:19:56;6.43;;;4.40;;
26774;SDS011;14362;51.902;7.626;2023-06-19T19:23:58;7.35;;;4.25;;
26774;SDS011;14362;51.902;7.626;2023-06-19T19:28:00;4.85;;;4.30;;
26774;SDS011;14362;51.902;7.626;2023-06-19T19:32:02;4.87;;;4.47;;
26774;SDS011;14362;51.902;7.626;2023-06-19T19:36:04;8.27;;;4.88;;
26774;SDS011;14362;51.902;7.626;2023-06-19T19:40:08;6.13;;;5.03;;
26774;SDS011;14362;51.902;7.626;2023-06-19T19:44:11;6.88;;;5.05;;
26774;SDS011;14362;51.902;7.626;2023-06-19T19:48:12;8.98;;;6.00;;
26774;SDS011;14362;51.902;7.626;2023-06-19T19:52:14;6.35;;;4.90;;
26774;SDS011;14362;51.902;7.626;2023-06-19T19:56:15;6.40;;;5.15;;
26774;SDS011;14362;51.902;7.626;2023-06-19T20:00:19;6.97;;;5.00;;
26774;SDS011;14362;51.902;7.626;2023-06-19T20:04:20;6.90;;;5.28;;
26774;SDS011;14362;51.902;7.626;2023-06-19T20:08:22;5.72;;;4.68;;
26774;SDS011;14362;51.902;7.626;2023-06-19T20:12:24;5.68;;;4.75;;
26774;SDS011;14362;51.902;7.626;2023-06-19T20:16:27;7.72;;;5.75;;
26774;SDS011;14362;51.902;7.626;2023-06-19T20:20:28;5.75;;;5.20;;
26774;SDS011;14362;51.902;7.626;2023-06-19T20:24:32;6.40;;;5.00;;
26774;SDS011;14362;51.902;7.626;2023-06-19T20:28:33;7.82;;;5.22;;
26774;SDS011;14362;51.902;7.626;2023-06-19T20:32:36;6.00;;;5.40;;
26774;SDS011;14362;51.902;7.626;2023-06-19T20:36:38;7.38;;;5.40;;
26774;SDS011;14362;51.902;7.626;2023-06-19T20:40:39;7.55;;;5.40;;
26774;SDS011;14362;51.902;7.626;2023-06-19T20:44:40;6.13;;;5.53;;
26774;SDS011;14362;51.902;7.626;2023-06-19T20:48:43;8.02;;;5.30;;
26774;SDS011;14362;51.902;7.626;2023-06-19T20:52:45;5.57;;;5.07;;
26774;SDS011;14362;51.902;7.626;2023-06-19T20:56:47;6.03;;;5.03;;
26774;SDS011;14362;51.902;7.626;2023-06-19T21:00:48;6.38;;;5.68;;
26774;SDS011;14362;51.902;7.626;2023-06-19T21:04:51;8.30;;;5.80;;
26774;SDS011;14362;51.902;7.626;2023-06-19T21:08:53;8.68;;;5.45;;
26774;SDS011;14362;51.902;7.626;2023-06-19T21:12:54;6.60;;;5.97;;
26774;SDS011;14362;51.902;7.626;2023-06-19T21:16:55;6.75;;;5.68;;
26774;SDS011;14362;51.902;7.626;2023-06-19T21:20:58;6.65;;;5.97;;
26774;SDS011;14362;51.902;7.626;2023-06-19T21:25:00;6.38;;;5.47;;
26774;SDS011;14362;51.902;7.626;2023-06-19T21:29:01;6.18;;;5.63;;
26774;SDS011;14362;51.902;7.626;2023-06-19T21:33:03;8.00;;;5.90;;
26774;SDS011;14362;51.902;7.626;2023-06-19T21:37:05;6.72;;;5.85;;
26774;SDS011;14362;51.902;7.626;2023-06-19T21:41:07;6.45;;;5.85;;
26774;SDS011;14362;51.902;7.626;2023-06-19T21:45:09;6.97;;;6.00;;
26774;SDS011;14362;51.902;7.626;2023-06-19T21:49:10;7.95;;;6.07;;
26774;SDS011;14362;51.902;7.626;2023-06-19T21:53:13;6.43;;;5.80;;
26774;SDS011;14362;51.902;7.626;2023-06-19T21:57:15;6.53;;;5.93;;
26774;SDS011;14362;51.902;7.626;2023-06-19T22:01:16;6.93;;;6.22;;
26774;SDS011;14362;51.902;7.626;2023-06-19T22:05:18;6.57;;;5.90;;
26774;SDS011;14362;51.902;7.626;2023-06-19T22:09:20;7.32;;;6.28;;
26774;SDS011;14362;51.902;7.626;2023-06-19T22:13:22;6.82;;;6.13;;
26774;SDS011;14362;51.902;7.626;2023-06-19T22:17:23;6.75;;;6.15;;
26774;SDS011;14362;51.902;7.626;2023-06-19T22:21:25;6.20;;;5.63;;
26774;SDS011;14362;51.902;7.626;2023-06-19T22:25:28;7.25;;;6.13;;
26774;SDS011;14362;51.902;7.626;2023-06-19T22:29:29;6.43;;;5.57;;
26774;SDS011;14362;51.902;7.626;2023-06-19T22:33:30;7.35;;;6.43;;
26774;SDS011;14362;51.902;7.626;2023-06-19T22:37:32;7.85;;;6.00;;
26774;SDS011;14362;51.902;7.626;2023-06-19T22:41:35;6.78;;;6.18;;
26774;SDS011;14362;51.902;7.626;2023-06-19T22:45:36;9.73;;;6.50;;
26774;SDS011;14362;51.902;7.626;2023-06-19T22:49:38;7.32;;;6.72;;
26774;SDS011;14362;51.902;7.626;2023-06-19T22:53:40;8.32;;;7.53;;
26774;SDS011;14362;51.902;7.626;2023-06-19T22:57:43;7.55;;;6.80;;
26774;SDS011;14362;51.902;7.626;2023-06-19T23:01:45;7.47;;;6.07;;
26774;SDS011;14362;51.902;7.626;2023-06-19T23:05:47;7.60;;;6.90;;
26774;SDS011;14362;51.902;7.626;2023-06-19T23:09:50;7.97;;;6.93;;
26774;SDS011;14362;51.902;7.626;2023-06-19T23:13:53;10.50;;;7.90;;
26774;SDS011;14362;51.902;7.626;2023-06-19T23:17:54;8.27;;;6.72;;
26774;SDS011;14362;51.902;7.626;2023-06-19T23:21:55;9.10;;;7.03;;
26774;SDS011;14362;51.902;7.626;2023-06-19T23:25:57;7.95;;;7.15;;
26774;SDS011;14362;51.902;7.626;2023-06-19T23:30:01;8.57;;;7.35;;
26774;SDS011;14362;51.902;7.626;2023-06-19T23:34:03;7.97;;;7.27;;
26774;SDS011;14362;51.902;7.626;2023-06-19T23:38:05;9.43;;;7.75;;
26774;SDS011;14362;51.902;7.626;2023-06-19T23:42:06;8.38;;;7.57;;
26774;SDS011;14362;51.902;7.626;2023-06-19T23:46:10;8.63;;;7.47;;
26774;SDS011;14362;51.902;7.626;2023-06-19T23:50:11;8.05;;;7.22;;
26774;SDS011;14362;51.902;7.626;2023-06-19T23:54:12;7.72;;;7.00;;
26774;SDS011;14362;51.902;7.626;2023-06-19T23:58:14;8.88;;;7.80;;
